createdAt,value
2023-04-27T00:01:42.082Z,5.15
2023-04-27T00:04:09.124Z,5.40
2023-04-27T00:06:36.016Z,5.13
2023-04-27T00:09:04.343Z,5.70
2023-04-27T00:11:31.230Z,5.10
2023-04-27T00:13:58.027Z,4.95
2023-04-27T00:16:24.902Z,5.10
2023-04-27T00:18:52.266Z,5.30
2023-04-27T00:21:19.126Z,5.30
2023-04-27T00:23:46.179Z,4.78
2023-04-27T00:26:13.170Z,5.18
2023-04-27T00:28:41.968Z,5.10
2023-04-27T00:31:09.074Z,4.75
2023-04-27T00:33:36.294Z,5.90
2023-04-27T00:36:03.254Z,5.30
2023-04-27T00:38:30.886Z,4.80
2023-04-27T00:41:06.590Z,4.32
2023-04-27T00:43:41.186Z,5.47
2023-04-27T00:46:08.753Z,5.63
2023-04-27T00:48:35.652Z,4.85
2023-04-27T00:51:02.552Z,4.97
2023-04-27T00:53:29.927Z,5.13
2023-04-27T00:55:57.882Z,4.90
2023-04-27T00:58:25.626Z,4.68
2023-04-27T01:00:55.217Z,5.13
2023-04-27T01:03:23.117Z,5.07
2023-04-27T01:05:50.161Z,4.65
2023-04-27T01:08:17.098Z,4.90
2023-04-27T01:10:44.064Z,5.40
2023-04-27T01:13:11.609Z,4.93
2023-04-27T01:15:38.597Z,5.03
2023-04-27T01:18:09.823Z,4.90
2023-04-27T01:20:38.561Z,5.35
2023-04-27T01:23:05.675Z,4.95
2023-04-27T01:25:32.452Z,5.10
2023-04-27T01:28:02.295Z,4.80
2023-04-27T01:30:30.257Z,4.60
2023-04-27T01:32:59.060Z,4.38
2023-04-27T01:35:28.256Z,5.13
2023-04-27T01:38:00.298Z,4.63
2023-04-27T01:40:27.178Z,4.72
2023-04-27T01:42:54.335Z,4.93
2023-04-27T01:45:21.220Z,5.63
2023-04-27T01:47:50.479Z,4.45
2023-04-27T01:50:20.198Z,4.65
2023-04-27T01:52:47.507Z,4.40
2023-04-27T01:55:14.387Z,4.25
2023-04-27T01:57:41.978Z,5.07
2023-04-27T02:00:09.388Z,4.55
2023-04-27T02:02:58.298Z,5.25
2023-04-27T02:05:25.109Z,4.80
2023-04-27T02:07:53.034Z,4.65
2023-04-27T02:10:22.223Z,4.45
2023-04-27T02:12:49.131Z,4.68
2023-04-27T02:15:16.054Z,4.22
2023-04-27T02:17:44.111Z,4.47
2023-04-27T02:20:12.917Z,4.57
2023-04-27T02:22:44.376Z,4.25
2023-04-27T02:25:12.738Z,4.93
2023-04-27T02:27:43.349Z,4.72
2023-04-27T02:30:12.180Z,4.18
2023-04-27T02:32:40.203Z,5.10
2023-04-27T02:35:08.492Z,5.28
2023-04-27T02:37:35.353Z,4.90
2023-04-27T02:40:02.285Z,5.20
2023-04-27T02:42:31.526Z,4.85
2023-04-27T02:44:58.273Z,5.13
2023-04-27T02:47:25.843Z,5.00
2023-04-27T02:49:53.303Z,5.65
2023-04-27T02:52:20.083Z,5.10
2023-04-27T02:54:46.834Z,5.63
2023-04-27T02:57:13.663Z,6.13
2023-04-27T02:59:40.856Z,5.20
2023-04-27T03:02:08.069Z,5.15
2023-04-27T03:04:36.688Z,5.28
2023-04-27T03:07:04.599Z,5.53
2023-04-27T03:09:31.470Z,5.30
2023-04-27T03:11:58.249Z,5.55
2023-04-27T03:14:25.109Z,5.50
2023-04-27T03:16:52.061Z,5.35
2023-04-27T03:19:18.965Z,5.88
2023-04-27T03:21:46.069Z,5.35
2023-04-27T03:24:13.097Z,5.85
2023-04-27T03:26:40.263Z,5.05
2023-04-27T03:29:07.071Z,5.43
2023-04-27T03:31:33.972Z,5.00
2023-04-27T03:34:01.631Z,5.55
2023-04-27T03:36:28.729Z,5.25
2023-04-27T03:38:55.528Z,5.47
2023-04-27T03:41:22.573Z,5.82
2023-04-27T03:43:50.810Z,5.32
2023-04-27T03:46:17.726Z,5.30
2023-04-27T03:48:47.099Z,5.22
2023-04-27T03:51:15.004Z,5.22
2023-04-27T03:53:45.130Z,5.32
2023-04-27T03:56:12.451Z,5.78
2023-04-27T03:58:39.261Z,5.47
2023-04-27T04:01:12.270Z,5.75
2023-04-27T04:03:39.229Z,5.20
2023-04-27T04:06:08.453Z,5.25
2023-04-27T04:08:35.480Z,4.88
2023-04-27T04:11:03.666Z,5.00
2023-04-27T04:13:31.163Z,5.45
2023-04-27T04:16:09.239Z,5.40
2023-04-27T04:18:36.935Z,5.55
2023-04-27T04:21:04.800Z,5.32
2023-04-27T04:23:32.829Z,5.25
2023-04-27T04:25:59.998Z,5.68
2023-04-27T04:28:31.188Z,5.35
2023-04-27T04:30:59.040Z,5.50
2023-04-27T04:33:26.324Z,6.10
2023-04-27T04:35:53.620Z,5.95
2023-04-27T04:38:21.108Z,5.97
2023-04-27T04:40:48.485Z,5.00
2023-04-27T04:43:15.274Z,5.25
2023-04-27T04:45:42.700Z,5.72
2023-04-27T04:48:10.361Z,5.40
2023-04-27T04:50:39.058Z,5.32
2023-04-27T04:53:06.502Z,5.82
2023-04-27T04:55:33.557Z,5.93
2023-04-27T04:58:00.595Z,5.90
2023-04-27T05:00:28.600Z,5.65
2023-04-27T05:02:55.612Z,5.32
2023-04-27T05:05:22.506Z,5.05
2023-04-27T05:07:49.245Z,5.78
2023-04-27T05:10:16.179Z,5.82
2023-04-27T05:12:44.436Z,5.35
2023-04-27T05:15:11.719Z,5.65
2023-04-27T05:17:38.737Z,5.28
2023-04-27T05:20:06.647Z,5.82
2023-04-27T05:22:33.522Z,6.50
2023-04-27T05:25:00.436Z,6.45
2023-04-27T05:27:27.361Z,6.22
2023-04-27T05:29:54.311Z,6.10
2023-04-27T05:32:21.321Z,5.43
2023-04-27T05:34:49.543Z,5.50
2023-04-27T05:37:16.718Z,5.03
2023-04-27T05:39:43.665Z,5.20
2023-04-27T05:42:10.620Z,5.78
2023-04-27T05:44:37.589Z,5.30
2023-04-27T05:47:04.504Z,5.57
2023-04-27T05:49:31.594Z,5.90
2023-04-27T05:51:59.139Z,5.28
2023-04-27T05:54:27.547Z,5.72
2023-04-27T05:56:54.427Z,5.30
2023-04-27T05:59:21.881Z,5.38
2023-04-27T06:01:49.010Z,5.40
2023-04-27T06:04:16.163Z,6.20
2023-04-27T06:06:44.783Z,4.70
2023-04-27T06:09:11.986Z,5.20
2023-04-27T06:11:39.196Z,5.70
2023-04-27T06:14:05.992Z,5.07
2023-04-27T06:16:32.947Z,4.50
2023-04-27T06:18:59.881Z,4.75
2023-04-27T06:21:26.835Z,4.80
2023-04-27T06:23:53.919Z,4.63
2023-04-27T06:26:20.699Z,5.05
2023-04-27T06:28:47.495Z,4.45
2023-04-27T06:31:14.704Z,4.95
2023-04-27T06:33:41.651Z,5.25
2023-04-27T06:36:08.644Z,4.95
2023-04-27T06:38:35.406Z,4.57
2023-04-27T06:41:03.057Z,4.53
2023-04-27T06:43:30.877Z,4.40
2023-04-27T06:45:57.779Z,4.72
2023-04-27T06:48:24.701Z,4.90
2023-04-27T06:50:52.072Z,4.47
2023-04-27T06:53:19.049Z,4.22
2023-04-27T06:55:48.289Z,3.92
2023-04-27T06:58:15.340Z,4.15
2023-04-27T07:00:42.116Z,4.40
2023-04-27T07:03:09.086Z,4.50
2023-04-27T07:05:36.030Z,4.15
2023-04-27T07:08:07.007Z,4.28
2023-04-27T07:10:35.158Z,3.80
2023-04-27T07:13:02.143Z,3.22
2023-04-27T07:15:30.467Z,3.53
2023-04-27T07:17:57.931Z,3.38
2023-04-27T07:20:24.882Z,3.80
2023-04-27T07:22:51.886Z,4.53
2023-04-27T07:25:20.166Z,4.00
2023-04-27T07:27:47.145Z,3.90
2023-04-27T07:30:14.369Z,4.10
2023-04-27T07:32:41.983Z,4.05
2023-04-27T07:35:09.850Z,3.78
2023-04-27T07:37:40.449Z,3.42
2023-04-27T07:40:16.674Z,3.10
2023-04-27T07:42:43.996Z,3.67
2023-04-27T07:45:10.878Z,3.28
2023-04-27T07:47:40.886Z,2.90
2023-04-27T07:50:08.471Z,3.17
2023-04-27T07:52:35.214Z,3.50
2023-04-27T07:55:02.126Z,2.90
2023-04-27T07:57:28.969Z,3.20
2023-04-27T07:59:56.973Z,3.20
2023-04-27T08:02:23.898Z,2.50
2023-04-27T08:04:51.097Z,3.00
2023-04-27T08:07:20.174Z,2.60
2023-04-27T08:09:47.129Z,2.47
2023-04-27T08:12:13.956Z,2.78
2023-04-27T08:14:40.736Z,2.20
2023-04-27T08:17:07.714Z,2.80
2023-04-27T08:19:34.549Z,2.65
2023-04-27T08:22:01.515Z,2.63
2023-04-27T08:24:28.264Z,2.80
2023-04-27T08:26:55.163Z,2.83
2023-04-27T08:29:28.037Z,2.60
2023-04-27T08:31:58.579Z,2.72
2023-04-27T08:34:26.103Z,2.40
2023-04-27T08:36:54.103Z,2.08
2023-04-27T08:39:21.446Z,2.00
2023-04-27T08:41:48.547Z,2.20
2023-04-27T08:44:16.135Z,2.05
2023-04-27T08:46:43.190Z,2.13
2023-04-27T08:49:10.106Z,2.17
2023-04-27T08:51:37.060Z,2.05
2023-04-27T08:54:04.141Z,2.50
2023-04-27T08:56:31.292Z,1.73
2023-04-27T08:58:59.028Z,2.28
2023-04-27T09:01:27.649Z,1.95
2023-04-27T09:03:59.824Z,1.73
2023-04-27T09:06:32.005Z,2.10
2023-04-27T09:09:00.261Z,1.70
2023-04-27T09:11:35.376Z,2.35
2023-04-27T09:14:24.016Z,2.08
2023-04-27T09:16:57.395Z,2.53
2023-04-27T09:19:25.987Z,2.67
2023-04-27T09:22:11.007Z,1.90
2023-04-27T09:24:38.050Z,1.50
2023-04-27T09:27:06.807Z,2.03
2023-04-27T09:29:37.746Z,2.35
2023-04-27T09:32:19.145Z,2.05
2023-04-27T09:34:45.972Z,1.80
2023-04-27T09:37:12.834Z,2.05
2023-04-27T09:39:41.526Z,2.15
2023-04-27T09:42:08.581Z,2.40
2023-04-27T09:44:36.034Z,2.45
2023-04-27T09:47:02.911Z,2.15
2023-04-27T09:49:29.675Z,1.70
2023-04-27T09:51:58.770Z,2.03
2023-04-27T09:54:29.152Z,2.15
2023-04-27T09:57:09.377Z,2.72
2023-04-27T09:59:53.725Z,2.47
2023-04-27T10:02:25.646Z,2.00
2023-04-27T10:05:28.702Z,2.25
2023-04-27T10:07:56.150Z,2.28
2023-04-27T10:10:23.021Z,2.30
2023-04-27T10:13:01.148Z,2.30
2023-04-27T10:15:30.066Z,2.03
2023-04-27T10:18:03.797Z,2.22
2023-04-27T10:20:32.965Z,2.33
2023-04-27T10:23:00.761Z,1.70
2023-04-27T10:25:29.866Z,1.92
2023-04-27T10:27:59.889Z,3.13
2023-04-27T10:30:44.101Z,2.25
2023-04-27T10:33:15.657Z,2.20
2023-04-27T10:35:45.450Z,2.08
2023-04-27T10:38:17.384Z,1.88
2023-04-27T10:40:46.130Z,2.13
2023-04-27T10:43:14.993Z,1.75
2023-04-27T10:45:43.688Z,2.42
2023-04-27T10:48:16.472Z,1.92
2023-04-27T10:50:44.955Z,1.45
2023-04-27T10:53:12.270Z,1.85
2023-04-27T10:55:39.331Z,1.95
2023-04-27T10:58:06.397Z,2.20
2023-04-27T11:00:41.660Z,1.63
2023-04-27T11:03:17.518Z,1.80
2023-04-27T11:05:46.281Z,1.60
2023-04-27T11:08:18.829Z,1.98
2023-04-27T11:10:47.497Z,2.20
2023-04-27T11:13:16.977Z,2.00
2023-04-27T11:15:48.064Z,1.70
2023-04-27T11:18:16.537Z,1.70
2023-04-27T11:20:45.534Z,1.83
2023-04-27T11:23:26.723Z,1.83
2023-04-27T11:25:53.867Z,2.00
2023-04-27T11:28:22.336Z,1.63
2023-04-27T11:30:59.745Z,2.05
2023-04-27T11:33:28.382Z,2.03
2023-04-27T11:35:56.664Z,2.65
2023-04-27T11:38:23.732Z,2.92
2023-04-27T11:41:07.752Z,2.10
2023-04-27T11:43:37.529Z,1.92
2023-04-27T11:46:05.983Z,1.42
2023-04-27T11:48:32.993Z,1.38
2023-04-27T11:51:01.259Z,1.67
2023-04-27T11:53:36.997Z,1.58
2023-04-27T11:56:05.772Z,1.20
2023-04-27T11:58:39.700Z,1.50
2023-04-27T12:01:07.782Z,1.30
2023-04-27T12:03:35.476Z,1.30
2023-04-27T12:08:32.353Z,1.33
2023-04-27T12:10:59.125Z,1.83
2023-04-27T12:13:25.890Z,2.30
2023-04-27T12:15:53.130Z,1.33
2023-04-27T12:18:20.782Z,1.60
2023-04-27T12:20:47.633Z,1.75
2023-04-27T12:23:14.621Z,2.10
2023-04-27T12:25:41.362Z,2.00
2023-04-27T12:28:08.400Z,1.80
2023-04-27T12:30:35.206Z,2.97
2023-04-27T12:33:06.704Z,2.00
2023-04-27T12:35:33.515Z,1.98
2023-04-27T12:38:01.039Z,1.75
2023-04-27T12:40:27.868Z,1.80
2023-04-27T12:42:54.784Z,2.22
2023-04-27T12:45:21.652Z,1.42
2023-04-27T12:48:01.559Z,1.85
2023-04-27T12:50:32.094Z,1.83
2023-04-27T12:53:00.124Z,1.92
2023-04-27T12:55:33.873Z,1.77
2023-04-27T12:58:02.608Z,2.17
2023-04-27T13:00:29.950Z,2.00
2023-04-27T13:02:57.347Z,1.40
2023-04-27T13:05:24.496Z,1.60
2023-04-27T13:07:51.391Z,1.35
2023-04-27T13:10:18.165Z,1.70
2023-04-27T13:12:45.418Z,1.15
2023-04-27T13:15:12.374Z,1.42
2023-04-27T13:17:40.607Z,1.40
2023-04-27T13:20:09.054Z,1.23
2023-04-27T13:22:36.091Z,1.85
2023-04-27T13:25:02.928Z,1.45
2023-04-27T13:27:29.656Z,0.98
2023-04-27T13:29:56.744Z,1.25
2023-04-27T13:32:23.549Z,1.67
2023-04-27T13:34:50.406Z,1.00
2023-04-27T13:37:17.623Z,0.93
2023-04-27T13:39:44.399Z,1.25
2023-04-27T13:42:11.575Z,1.05
2023-04-27T13:44:38.383Z,2.80
2023-04-27T13:47:05.413Z,6.55
2023-04-27T13:49:32.261Z,1.20
2023-04-27T13:52:00.121Z,2.63
2023-04-27T13:54:27.442Z,3.10
2023-04-27T13:56:54.231Z,1.52
2023-04-27T13:59:21.737Z,1.77
2023-04-27T14:01:48.773Z,0.90
2023-04-27T14:04:15.774Z,1.40
2023-04-27T14:06:42.611Z,3.60
2023-04-27T14:09:09.429Z,1.10
2023-04-27T14:11:52.445Z,1.70
2023-04-27T14:14:22.652Z,1.50
2023-04-27T14:16:51.300Z,1.25
2023-04-27T14:19:20.437Z,1.10
2023-04-27T14:21:48.140Z,1.30
2023-04-27T14:24:15.091Z,1.23
2023-04-27T14:26:44.006Z,1.27
2023-04-27T14:29:11.565Z,1.20
2023-04-27T14:31:39.338Z,1.42
2023-04-27T14:34:06.930Z,1.30
2023-04-27T14:36:34.454Z,1.27
2023-04-27T14:39:01.421Z,1.20
2023-04-27T14:41:28.676Z,1.17
2023-04-27T14:43:55.702Z,1.40
2023-04-27T14:46:23.007Z,1.27
2023-04-27T14:48:51.218Z,1.50
2023-04-27T14:51:18.770Z,1.52
2023-04-27T14:53:45.827Z,1.10
2023-04-27T14:56:12.629Z,1.10
2023-04-27T14:58:39.437Z,1.10
2023-04-27T15:01:07.538Z,1.23
2023-04-27T15:03:34.693Z,1.17
2023-04-27T15:06:02.414Z,1.10
2023-04-27T15:08:31.327Z,0.60
2023-04-27T15:11:00.025Z,0.70
2023-04-27T15:13:27.817Z,1.10
2023-04-27T15:15:56.138Z,1.00
2023-04-27T15:18:24.353Z,1.13
2023-04-27T15:21:00.205Z,0.80
2023-04-27T15:23:27.643Z,0.98
2023-04-27T15:25:56.576Z,1.15
2023-04-27T15:28:24.230Z,0.93
2023-04-27T15:30:51.513Z,0.90
2023-04-27T15:33:18.596Z,0.80
2023-04-27T15:35:45.772Z,0.70
2023-04-27T15:38:16.141Z,0.93
2023-04-27T15:40:43.020Z,1.55
2023-04-27T15:43:09.872Z,1.10
2023-04-27T15:45:39.643Z,0.90
2023-04-27T15:48:06.701Z,0.93
2023-04-27T15:50:33.536Z,0.88
2023-04-27T15:53:00.325Z,0.95
2023-04-27T15:55:27.526Z,0.70
2023-04-27T15:57:54.839Z,0.73
2023-04-27T16:00:22.470Z,1.00
2023-04-27T16:02:52.322Z,0.95
2023-04-27T16:05:19.245Z,1.25
2023-04-27T16:07:46.383Z,1.50
2023-04-27T16:10:13.555Z,1.05
2023-04-27T16:12:40.829Z,1.23
2023-04-27T16:15:10.917Z,0.80
2023-04-27T16:17:39.149Z,0.90
2023-04-27T16:20:06.974Z,0.70
2023-04-27T16:22:34.676Z,1.02
2023-04-27T16:25:02.092Z,1.00
2023-04-27T16:27:28.880Z,0.73
2023-04-27T16:29:56.456Z,1.00
2023-04-27T16:32:23.698Z,0.70
2023-04-27T16:34:50.655Z,1.17
2023-04-27T16:37:17.470Z,1.23
2023-04-27T16:39:44.793Z,0.90
2023-04-27T16:42:13.366Z,0.60
2023-04-27T16:44:40.263Z,0.90
2023-04-27T16:47:07.070Z,0.50
2023-04-27T16:49:33.904Z,0.80
2023-04-27T16:52:00.727Z,0.70
2023-04-27T16:54:27.762Z,0.82
2023-04-27T16:56:55.314Z,0.93
2023-04-27T16:59:22.532Z,0.70
2023-04-27T17:01:49.330Z,1.15
2023-04-27T17:04:16.257Z,1.17
2023-04-27T17:06:45.340Z,0.80
2023-04-27T17:09:12.492Z,0.65
2023-04-27T17:11:39.689Z,0.80
2023-04-27T17:14:06.638Z,1.17
2023-04-27T17:16:33.423Z,1.23
2023-04-27T17:19:00.153Z,0.85
2023-04-27T17:21:27.489Z,0.90
2023-04-27T17:23:54.474Z,1.10
2023-04-27T17:26:21.744Z,0.98
2023-04-27T17:28:49.566Z,0.80
2023-04-27T17:31:19.462Z,0.80
2023-04-27T17:33:46.248Z,0.90
2023-04-27T17:36:13.362Z,1.23
2023-04-27T17:38:40.869Z,1.30
2023-04-27T17:41:08.034Z,0.98
2023-04-27T17:43:34.813Z,1.30
2023-04-27T17:46:06.148Z,1.38
2023-04-27T17:48:33.057Z,1.33
2023-04-27T17:51:00.134Z,1.52
2023-04-27T17:53:27.139Z,1.90
2023-04-27T17:55:54.408Z,1.50
2023-04-27T17:58:21.167Z,2.25
2023-04-27T18:00:48.019Z,4.75
2023-04-27T18:03:16.060Z,7.65
2023-04-27T18:05:43.421Z,5.45
2023-04-27T18:08:10.773Z,4.13
2023-04-27T18:10:37.570Z,1.80
2023-04-27T18:13:04.370Z,1.10
2023-04-27T18:15:31.406Z,1.40
2023-04-27T18:17:58.222Z,1.15
2023-04-27T18:20:27.333Z,1.52
2023-04-27T18:22:54.720Z,1.73
2023-04-27T18:25:21.778Z,1.27
2023-04-27T18:27:55.036Z,1.38
2023-04-27T18:30:22.998Z,1.52
2023-04-27T18:32:49.874Z,1.23
2023-04-27T18:35:16.790Z,1.20
2023-04-27T18:37:48.142Z,1.38
2023-04-27T18:40:21.042Z,3.60
2023-04-27T18:42:48.002Z,13.38
2023-04-27T18:45:15.738Z,9.52
2023-04-27T18:47:42.677Z,6.10
2023-04-27T18:50:10.968Z,5.05
2023-04-27T18:52:37.716Z,3.95
2023-04-27T18:55:05.147Z,5.30
2023-04-27T18:57:31.942Z,4.53
2023-04-27T18:59:59.177Z,3.40
2023-04-27T19:02:26.436Z,4.13
2023-04-27T19:05:10.441Z,4.32
2023-04-27T19:07:39.561Z,3.70
2023-04-27T19:10:07.180Z,2.65
2023-04-27T19:12:33.939Z,3.38
2023-04-27T19:15:00.867Z,3.58
2023-04-27T19:17:27.852Z,3.15
2023-04-27T19:19:54.772Z,3.38
2023-04-27T19:22:21.646Z,3.53
2023-04-27T19:24:48.753Z,6.35
2023-04-27T19:27:16.402Z,6.22
2023-04-27T19:29:54.646Z,5.88
2023-04-27T19:32:25.243Z,6.05
2023-04-27T19:34:52.121Z,10.45
2023-04-27T19:37:18.911Z,6.20
2023-04-27T19:39:48.908Z,4.32
2023-04-27T19:42:16.328Z,4.65
2023-04-27T19:44:43.186Z,3.90
2023-04-27T19:47:13.024Z,3.75
2023-04-27T19:49:40.363Z,5.32
2023-04-27T19:52:07.569Z,6.95
2023-04-27T19:54:36.105Z,7.28
2023-04-27T19:57:03.877Z,6.22
2023-04-27T19:59:30.793Z,3.85
2023-04-27T20:01:57.676Z,2.97
2023-04-27T20:04:24.989Z,4.05
2023-04-27T20:06:52.204Z,4.38
2023-04-27T20:09:19.025Z,4.97
2023-04-27T20:11:45.850Z,4.88
2023-04-27T20:14:13.321Z,5.28
2023-04-27T20:16:40.605Z,6.97
2023-04-27T20:19:07.444Z,6.22
2023-04-27T20:21:34.359Z,3.05
2023-04-27T20:24:01.901Z,2.42
2023-04-27T20:26:28.788Z,2.40
2023-04-27T20:28:55.938Z,2.30
2023-04-27T20:31:22.840Z,2.67
2023-04-27T20:33:49.722Z,2.45
2023-04-27T20:36:18.331Z,3.38
2023-04-27T20:38:46.177Z,2.60
2023-04-27T20:41:13.582Z,2.80
2023-04-27T20:43:40.521Z,2.70
2023-04-27T20:46:11.703Z,3.03
2023-04-27T20:48:38.634Z,3.20
2023-04-27T20:51:05.761Z,2.60
2023-04-27T20:53:32.600Z,2.70
2023-04-27T20:55:59.433Z,2.50
2023-04-27T20:58:26.266Z,2.30
2023-04-27T21:00:53.301Z,2.50
2023-04-27T21:03:21.061Z,2.08
2023-04-27T21:05:49.248Z,2.08
2023-04-27T21:08:19.589Z,2.20
2023-04-27T21:10:46.668Z,3.47
2023-04-27T21:13:13.579Z,4.45
2023-04-27T21:15:40.463Z,4.32
2023-04-27T21:18:13.448Z,3.38
2023-04-27T21:20:43.019Z,4.00
2023-04-27T21:23:09.791Z,3.60
2023-04-27T21:25:36.597Z,3.08
2023-04-27T21:28:03.400Z,3.33
2023-04-27T21:30:31.614Z,3.22
2023-04-27T21:32:58.377Z,2.50
2023-04-27T21:35:25.504Z,2.83
2023-04-27T21:37:52.274Z,3.60
2023-04-27T21:40:19.262Z,2.30
2023-04-27T21:42:46.002Z,2.40
2023-04-27T21:45:12.878Z,2.25
2023-04-27T21:47:40.725Z,2.40
2023-04-27T21:50:08.348Z,2.80
2023-04-27T21:52:35.149Z,2.83
2023-04-27T21:55:02.000Z,2.22
2023-04-27T21:57:28.832Z,2.42
2023-04-27T21:59:55.737Z,2.10
2023-04-27T22:02:22.852Z,2.45
2023-04-27T22:04:51.269Z,2.38
2023-04-27T22:07:18.915Z,2.22
2023-04-27T22:09:46.369Z,2.30
2023-04-27T22:12:13.144Z,2.33
2023-04-27T22:14:41.748Z,2.58
2023-04-27T22:17:08.528Z,2.38
2023-04-27T22:19:35.326Z,2.28
2023-04-27T22:22:02.316Z,2.70
2023-04-27T22:24:29.096Z,2.55
2023-04-27T22:26:56.492Z,2.58
2023-04-27T22:29:23.270Z,2.88
2023-04-27T22:31:51.014Z,2.65
2023-04-27T22:34:17.894Z,2.80
2023-04-27T22:36:45.392Z,2.72
2023-04-27T22:39:12.285Z,2.78
2023-04-27T22:41:39.192Z,2.83
2023-04-27T22:44:06.344Z,3.35
2023-04-27T22:46:33.175Z,2.83
2023-04-27T22:49:01.471Z,3.10
2023-04-27T22:51:28.330Z,3.15
2023-04-27T22:53:55.048Z,3.00
2023-04-27T22:56:22.399Z,3.83
2023-04-27T22:58:49.232Z,3.03
2023-04-27T23:01:17.097Z,3.75
2023-04-27T23:03:44.079Z,3.78
2023-04-27T23:06:14.351Z,3.78
2023-04-27T23:08:46.893Z,3.63
2023-04-27T23:11:15.538Z,3.45
2023-04-27T23:13:42.537Z,2.97
2023-04-27T23:16:10.045Z,2.88
2023-04-27T23:18:36.985Z,3.42
2023-04-27T23:21:04.058Z,3.30
2023-04-27T23:23:31.032Z,3.25
2023-04-27T23:25:57.855Z,2.80
2023-04-27T23:28:24.605Z,3.40
2023-04-27T23:30:55.130Z,3.10
2023-04-27T23:33:22.135Z,3.10
2023-04-27T23:35:48.884Z,3.22
2023-04-27T23:38:15.807Z,3.50
2023-04-27T23:40:42.574Z,3.10
2023-04-27T23:43:09.367Z,3.13
2023-04-27T23:45:36.382Z,3.20
2023-04-27T23:48:03.951Z,3.75
2023-04-27T23:50:30.794Z,3.28
2023-04-27T23:52:57.561Z,3.50
2023-04-27T23:55:24.382Z,3.20
2023-04-27T23:57:52.501Z,3.28
